Time;durP1;ratioP1;P1;durP2;ratioP2;P2;SDS_P1;SDS_P2;PMS_P1;PMS_P2;Temp;Humidity;BMP_temperature;BMP_pressure;BME280_temperature;BME280_humidity;BME280_pressure;Samples;Min_cycle;Max_cycle;Signal;HPM_P1;HPM_P2
2023/07/25 00:02:12;;;;;;;3.97;3.40;;;;;;;;;;4988471;28;20117;-77
2023/07/25 00:04:37;;;;;;;4.30;3.60;;;;;;;;;;4999986;28;20069;-77
2023/07/25 00:07:02;;;;;;;4.53;3.13;;;;;;;;;;4986647;28;20447;-77
2023/07/25 00:09:28;;;;;;;4.75;3.22;;;;;;;;;;4986508;28;20054;-77
2023/07/25 00:11:53;;;;;;;5.80;3.30;;;;;;;;;;4987714;28;20056;-78
2023/07/25 00:14:18;;;;;;;4.18;3.20;;;;;;;;;;4998486;28;20503;-77
2023/07/25 00:16:44;;;;;;;3.95;3.20;;;;;;;;;;4987603;28;20046;-77
2023/07/25 00:19:09;;;;;;;5.30;2.80;;;;;;;;;;4995227;28;20065;-77
2023/07/25 00:21:34;;;;;;;3.80;3.22;;;;;;;;;;4995627;28;20034;-77
2023/07/25 00:24:00;;;;;;;4.60;3.22;;;;;;;;;;4993299;28;20212;-77
2023/07/25 00:26:25;;;;;;;5.35;3.35;;;;;;;;;;4989810;28;20030;-77
2023/07/25 00:28:50;;;;;;;4.45;3.50;;;;;;;;;;4991687;28;20038;-77
2023/07/25 00:31:16;;;;;;;4.97;3.95;;;;;;;;;;4993952;28;20117;-77
2023/07/25 00:33:41;;;;;;;4.70;3.58;;;;;;;;;;5005973;28;20406;-77
2023/07/25 00:36:06;;;;;;;7.72;4.20;;;;;;;;;;4987226;28;20034;-77
2023/07/25 00:38:31;;;;;;;6.30;3.92;;;;;;;;;;4992186;28;20026;-77
2023/07/25 00:40:57;;;;;;;5.18;4.13;;;;;;;;;;4989692;28;20093;-77
2023/07/25 00:43:22;;;;;;;6.95;4.38;;;;;;;;;;4990938;28;20117;-77
2023/07/25 00:45:48;;;;;;;5.63;4.10;;;;;;;;;;4992454;28;20106;-76
2023/07/25 00:48:13;;;;;;;7.78;4.53;;;;;;;;;;4992737;28;20049;-77
2023/07/25 00:50:39;;;;;;;4.60;4.10;;;;;;;;;;4989134;28;20116;-77
2023/07/25 00:53:06;;;;;;;7.38;4.53;;;;;;;;;;4990337;28;20041;-77
2023/07/25 00:55:32;;;;;;;5.75;4.47;;;;;;;;;;5009165;28;20535;-77
2023/07/25 00:57:57;;;;;;;7.93;4.70;;;;;;;;;;4993031;28;20042;-77
2023/07/25 01:00:23;;;;;;;10.25;5.00;;;;;;;;;;4994296;28;20046;-77
2023/07/25 01:02:48;;;;;;;6.32;4.85;;;;;;;;;;4992282;28;20030;-77
2023/07/25 01:05:14;;;;;;;5.82;4.63;;;;;;;;;;4993746;28;20041;-77
2023/07/25 01:07:40;;;;;;;6.97;5.03;;;;;;;;;;5008620;28;20046;-77
2023/07/25 01:10:06;;;;;;;5.80;4.47;;;;;;;;;;4991254;28;20787;-77
2023/07/25 01:12:32;;;;;;;8.27;5.70;;;;;;;;;;4993258;28;20056;-76
2023/07/25 01:14:57;;;;;;;10.10;5.72;;;;;;;;;;4995420;28;20170;-77
2023/07/25 01:17:24;;;;;;;9.93;5.13;;;;;;;;;;4996116;28;20092;-78
2023/07/25 01:19:50;;;;;;;10.35;5.78;;;;;;;;;;4990757;28;20038;-75
2023/07/25 01:22:16;;;;;;;8.57;6.30;;;;;;;;;;5004482;28;20030;-76
2023/07/25 01:24:46;;;;;;;9.38;6.15;;;;;;;;;;4994773;28;20039;-77
2023/07/25 01:27:12;;;;;;;11.95;6.05;;;;;;;;;;4989626;28;20018;-77
2023/07/25 01:29:37;;;;;;;11.02;5.85;;;;;;;;;;4986567;28;20053;-76
2023/07/25 01:32:03;;;;;;;9.23;6.25;;;;;;;;;;4987642;28;20039;-76
2023/07/25 01:34:29;;;;;;;10.80;6.35;;;;;;;;;;4991038;28;20640;-77
2023/07/25 01:36:54;;;;;;;10.07;5.63;;;;;;;;;;4989430;28;20038;-76
2023/07/25 01:39:19;;;;;;;8.40;5.40;;;;;;;;;;4999195;28;20030;-75
2023/07/25 01:41:44;;;;;;;8.00;5.72;;;;;;;;;;4981817;28;20038;-76
2023/07/25 01:44:10;;;;;;;12.60;6.50;;;;;;;;;;4989414;28;20551;-77
2023/07/25 01:46:36;;;;;;;8.43;6.53;;;;;;;;;;4990010;28;20069;-77
2023/07/25 01:49:01;;;;;;;18.17;7.00;;;;;;;;;;5001382;28;20037;-76
2023/07/25 01:51:27;;;;;;;14.88;6.28;;;;;;;;;;4986631;28;20030;-76
2023/07/25 01:53:53;;;;;;;11.95;5.60;;;;;;;;;;4989366;28;20037;-76
2023/07/25 01:56:22;;;;;;;9.82;6.55;;;;;;;;;;4988457;28;20653;-76
2023/07/25 01:58:47;;;;;;;10.68;6.38;;;;;;;;;;4988347;28;20039;-78
2023/07/25 02:01:12;;;;;;;10.02;6.25;;;;;;;;;;4985684;28;20046;-76
2023/07/25 02:03:38;;;;;;;11.77;6.03;;;;;;;;;;4989481;28;20043;-76
2023/07/25 02:06:04;;;;;;;13.35;6.25;;;;;;;;;;4997076;28;20433;-76
2023/07/25 02:08:29;;;;;;;9.95;6.00;;;;;;;;;;4991061;28;20489;-76
2023/07/25 02:10:54;;;;;;;9.45;6.57;;;;;;;;;;4984567;28;20162;-76
2023/07/25 02:13:20;;;;;;;8.85;5.88;;;;;;;;;;4989846;28;20391;-75
2023/07/25 02:15:45;;;;;;;7.55;5.53;;;;;;;;;;5002987;28;20462;-76
2023/07/25 02:18:10;;;;;;;8.95;6.35;;;;;;;;;;4989343;28;20103;-76
2023/07/25 02:20:36;;;;;;;12.48;5.88;;;;;;;;;;4990012;28;20053;-76
2023/07/25 02:23:02;;;;;;;13.55;6.25;;;;;;;;;;4985529;28;20038;-76
2023/07/25 02:25:29;;;;;;;11.15;5.82;;;;;;;;;;4985646;28;20038;-76
2023/07/25 02:27:55;;;;;;;8.27;5.28;;;;;;;;;;4985962;28;20176;-76
2023/07/25 02:30:21;;;;;;;7.45;5.63;;;;;;;;;;4982500;28;20065;-76
2023/07/25 02:32:47;;;;;;;32.10;7.05;;;;;;;;;;4985367;28;20026;-76
2023/07/25 02:35:12;;;;;;;15.88;7.70;;;;;;;;;;4985810;28;20607;-76
2023/07/25 02:37:37;;;;;;;10.45;6.35;;;;;;;;;;4984099;28;20059;-77
2023/07/25 02:40:03;;;;;;;13.95;7.40;;;;;;;;;;4985581;28;20038;-77
2023/07/25 02:42:28;;;;;;;9.27;6.45;;;;;;;;;;4989011;28;20495;-77
2023/07/25 02:44:54;;;;;;;11.23;7.03;;;;;;;;;;4990407;28;20581;-77
2023/07/25 02:47:19;;;;;;;13.90;7.43;;;;;;;;;;4989214;28;20055;-77
2023/07/25 02:49:44;;;;;;;15.90;7.32;;;;;;;;;;4986820;28;20042;-77
2023/07/25 02:52:09;;;;;;;13.60;7.38;;;;;;;;;;5000826;28;20463;-77
2023/07/25 02:54:35;;;;;;;14.38;7.55;;;;;;;;;;4990990;28;20044;-77
2023/07/25 02:57:00;;;;;;;9.93;6.65;;;;;;;;;;4986859;28;20030;-76
2023/07/25 02:59:25;;;;;;;10.15;6.28;;;;;;;;;;4989779;28;20072;-77
2023/07/25 03:01:51;;;;;;;11.65;6.97;;;;;;;;;;4987322;28;20535;-77
2023/07/25 03:04:16;;;;;;;13.43;6.60;;;;;;;;;;4988134;28;20035;-77
2023/07/25 03:06:41;;;;;;;15.80;6.78;;;;;;;;;;5005073;28;20030;-77
2023/07/25 03:09:07;;;;;;;11.00;6.47;;;;;;;;;;4987957;28;20491;-77
2023/07/25 03:11:32;;;;;;;14.68;6.70;;;;;;;;;;4984825;28;20136;-78
2023/07/25 03:13:57;;;;;;;13.52;7.05;;;;;;;;;;5001101;28;20023;-77
2023/07/25 03:16:23;;;;;;;9.90;6.70;;;;;;;;;;5003425;28;20022;-77
2023/07/25 03:18:48;;;;;;;12.23;6.72;;;;;;;;;;4988511;28;20037;-77
2023/07/25 03:21:13;;;;;;;8.93;6.18;;;;;;;;;;4988085;28;20029;-76
2023/07/25 03:23:39;;;;;;;15.02;7.07;;;;;;;;;;4989268;28;20029;-77
2023/07/25 03:26:04;;;;;;;10.45;6.78;;;;;;;;;;4988878;28;20417;-77
2023/07/25 03:28:30;;;;;;;9.30;5.13;;;;;;;;;;4988201;28;20037;-76
2023/07/25 03:30:55;;;;;;;9.23;5.72;;;;;;;;;;4990875;28;20030;-76
2023/07/25 03:33:20;;;;;;;8.68;5.10;;;;;;;;;;4987766;28;20014;-76
2023/07/25 03:35:45;;;;;;;10.25;5.60;;;;;;;;;;4987523;28;20037;-77
2023/07/25 03:38:11;;;;;;;9.23;6.18;;;;;;;;;;5001970;28;20030;-77
2023/07/25 03:40:36;;;;;;;8.88;7.28;;;;;;;;;;4989827;28;20034;-76
2023/07/25 03:43:02;;;;;;;9.82;6.07;;;;;;;;;;4989035;28;20058;-77
2023/07/25 03:45:27;;;;;;;11.00;5.65;;;;;;;;;;4985935;28;20117;-76
2023/07/25 03:47:52;;;;;;;7.60;5.20;;;;;;;;;;4988862;28;20026;-77
2023/07/25 03:50:17;;;;;;;7.35;4.90;;;;;;;;;;4988939;28;20510;-77
2023/07/25 03:52:43;;;;;;;6.85;4.80;;;;;;;;;;4984948;28;20073;-77
2023/07/25 03:55:08;;;;;;;8.60;5.32;;;;;;;;;;4989590;28;20073;-77
2023/07/25 03:57:34;;;;;;;14.95;5.80;;;;;;;;;;4986843;28;20057;-77
2023/07/25 03:59:59;;;;;;;11.93;5.78;;;;;;;;;;4985691;28;20112;-77
2023/07/25 04:02:24;;;;;;;8.90;5.50;;;;;;;;;;5000975;28;20683;-77
2023/07/25 04:04:49;;;;;;;9.55;5.53;;;;;;;;;;4990016;28;20602;-76
2023/07/25 04:07:15;;;;;;;8.40;4.95;;;;;;;;;;4986635;28;20035;-78
2023/07/25 04:09:40;;;;;;;7.15;4.78;;;;;;;;;;4987984;28;20054;-77
2023/07/25 04:12:06;;;;;;;5.80;4.68;;;;;;;;;;5000091;28;20026;-77
2023/07/25 04:14:31;;;;;;;6.57;4.10;;;;;;;;;;4986766;28;20436;-77
2023/07/25 04:16:56;;;;;;;4.95;4.00;;;;;;;;;;4988515;28;20050;-78
2023/07/25 04:19:22;;;;;;;7.43;4.38;;;;;;;;;;4986868;28;20054;-78
2023/07/25 04:21:47;;;;;;;6.03;4.07;;;;;;;;;;4988557;28;20034;-77
2023/07/25 04:24:12;;;;;;;6.15;4.35;;;;;;;;;;4986513;28;20062;-77
2023/07/25 04:26:38;;;;;;;7.60;4.78;;;;;;;;;;5001929;28;20022;-77
2023/07/25 04:29:03;;;;;;;12.38;5.22;;;;;;;;;;4987028;28;20058;-77
2023/07/25 04:31:28;;;;;;;5.47;4.22;;;;;;;;;;4990801;28;20023;-77
2023/07/25 04:33:53;;;;;;;8.95;4.60;;;;;;;;;;4999014;28;20398;-77
2023/07/25 04:36:19;;;;;;;7.32;4.47;;;;;;;;;;4987865;28;20018;-78
2023/07/25 04:38:44;;;;;;;6.60;4.93;;;;;;;;;;4986828;28;20034;-78
2023/07/25 04:41:09;;;;;;;8.30;4.90;;;;;;;;;;4989380;28;20108;-78
2023/07/25 04:43:35;;;;;;;8.13;4.53;;;;;;;;;;5003622;28;20042;-77
2023/07/25 04:46:00;;;;;;;6.28;4.85;;;;;;;;;;4986977;28;20105;-77
2023/07/25 04:48:25;;;;;;;5.00;4.40;;;;;;;;;;4988773;28;20523;-77
2023/07/25 04:50:51;;;;;;;5.07;4.15;;;;;;;;;;4984686;28;20034;-77
2023/07/25 04:53:16;;;;;;;5.43;4.22;;;;;;;;;;5002922;28;20023;-77
2023/07/25 04:55:41;;;;;;;6.82;3.88;;;;;;;;;;4999855;28;20060;-77
2023/07/25 04:58:06;;;;;;;8.57;3.83;;;;;;;;;;4985145;28;20039;-77
2023/07/25 05:00:32;;;;;;;4.43;3.42;;;;;;;;;;4985319;28;20041;-78
2023/07/25 05:02:57;;;;;;;10.45;4.05;;;;;;;;;;4982611;28;20015;-78
2023/07/25 05:05:23;;;;;;;4.47;3.83;;;;;;;;;;4989337;28;20038;-77
2023/07/25 05:07:48;;;;;;;6.50;4.60;;;;;;;;;;4988004;28;20053;-78
2023/07/25 05:10:13;;;;;;;4.60;3.90;;;;;;;;;;4987834;28;20122;-77
2023/07/25 05:12:39;;;;;;;6.93;4.40;;;;;;;;;;4989674;28;20034;-78
2023/07/25 05:15:05;;;;;;;4.40;4.00;;;;;;;;;;4988015;28;20375;-77
2023/07/25 05:17:30;;;;;;;8.80;3.85;;;;;;;;;;4987216;28;20077;-76
2023/07/25 05:19:55;;;;;;;7.15;4.60;;;;;;;;;;4994955;28;20047;-77
2023/07/25 05:22:21;;;;;;;8.38;3.22;;;;;;;;;;4983859;28;20189;-76
2023/07/25 05:24:46;;;;;;;6.57;3.22;;;;;;;;;;4988450;28;20034;-76
2023/07/25 05:27:12;;;;;;;3.72;3.35;;;;;;;;;;4978200;28;20026;-77
2023/07/25 05:29:37;;;;;;;5.30;3.50;;;;;;;;;;4983856;28;20030;-76
2023/07/25 05:32:02;;;;;;;4.00;2.95;;;;;;;;;;4988171;28;20034;-76
2023/07/25 05:34:28;;;;;;;6.63;3.50;;;;;;;;;;4988509;28;20042;-77
2023/07/25 05:36:53;;;;;;;5.65;3.17;;;;;;;;;;4982959;28;20579;-77
2023/07/25 05:39:18;;;;;;;4.53;3.58;;;;;;;;;;4985986;28;20026;-77
2023/07/25 05:41:43;;;;;;;5.75;3.30;;;;;;;;;;4982846;28;20097;-76
2023/07/25 05:44:09;;;;;;;4.57;3.20;;;;;;;;;;4987109;28;20541;-77
2023/07/25 05:46:34;;;;;;;3.13;2.83;;;;;;;;;;4987053;28;20045;-78
2023/07/25 05:48:59;;;;;;;5.80;3.17;;;;;;;;;;4980520;28;20038;-78
2023/07/25 05:51:25;;;;;;;4.43;3.35;;;;;;;;;;4990186;28;20042;-77
2023/07/25 05:53:50;;;;;;;3.50;3.20;;;;;;;;;;4999778;28;20125;-76
2023/07/25 05:56:15;;;;;;;6.00;3.78;;;;;;;;;;4979612;28;20149;-75
2023/07/25 05:58:41;;;;;;;4.93;3.28;;;;;;;;;;4981514;28;20093;-76
2023/07/25 06:01:06;;;;;;;4.15;3.22;;;;;;;;;;4980728;28;20043;-74
2023/07/25 06:03:31;;;;;;;4.80;3.55;;;;;;;;;;4974965;28;20652;-74
2023/07/25 06:05:57;;;;;;;5.88;3.50;;;;;;;;;;4995351;28;20383;-73
2023/07/25 06:08:22;;;;;;;10.07;4.03;;;;;;;;;;4977808;28;20428;-75
2023/07/25 06:10:48;;;;;;;8.98;3.80;;;;;;;;;;4980237;28;20042;-75
2023/07/25 06:13:13;;;;;;;5.15;3.22;;;;;;;;;;4971672;28;20556;-76
2023/07/25 06:15:38;;;;;;;4.70;3.25;;;;;;;;;;4974535;28;20529;-75
2023/07/25 06:18:04;;;;;;;2.97;2.67;;;;;;;;;;4974701;28;20042;-76
2023/07/25 06:20:32;;;;;;;5.50;2.92;;;;;;;;;;4979256;28;20395;-75
2023/07/25 06:22:58;;;;;;;2.15;1.95;;;;;;;;;;4976986;28;20081;-75
2023/07/25 06:25:23;;;;;;;4.82;2.90;;;;;;;;;;4968919;28;20129;-75
2023/07/25 06:27:49;;;;;;;2.45;2.20;;;;;;;;;;4979578;28;20129;-75
2023/07/25 06:30:14;;;;;;;2.65;2.42;;;;;;;;;;4977346;28;20022;-75
2023/07/25 06:32:39;;;;;;;5.22;3.15;;;;;;;;;;4980300;28;20121;-75
2023/07/25 06:35:05;;;;;;;4.75;3.00;;;;;;;;;;4973789;28;20045;-76
2023/07/25 06:37:35;;;;;;;4.30;3.40;;;;;;;;;;4977645;28;20495;-76
2023/07/25 06:40:00;;;;;;;3.67;2.95;;;;;;;;;;4977643;28;20061;-76
2023/07/25 06:42:28;;;;;;;6.00;2.53;;;;;;;;;;4983259;28;20027;-76
2023/07/25 06:44:54;;;;;;;3.35;2.65;;;;;;;;;;4979488;28;20019;-75
2023/07/25 06:47:20;;;;;;;5.40;2.88;;;;;;;;;;4976273;28;20070;-77
2023/07/25 06:49:45;;;;;;;3.00;2.80;;;;;;;;;;4976196;28;20066;-76
2023/07/25 06:52:10;;;;;;;4.07;3.30;;;;;;;;;;4976678;28;20458;-77
2023/07/25 06:54:37;;;;;;;7.05;3.40;;;;;;;;;;4990949;28;20073;-77
2023/07/25 06:57:03;;;;;;;3.75;2.95;;;;;;;;;;4975613;28;20042;-76
2023/07/25 06:59:29;;;;;;;3.58;2.67;;;;;;;;;;4975512;28;20042;-75
2023/07/25 07:01:55;;;;;;;4.60;3.28;;;;;;;;;;4976484;28;20050;-74
2023/07/25 07:04:20;;;;;;;3.88;2.65;;;;;;;;;;4973388;28;20419;-75
2023/07/25 07:06:46;;;;;;;4.97;2.75;;;;;;;;;;4981738;28;20069;-76
2023/07/25 07:09:11;;;;;;;2.72;2.53;;;;;;;;;;4975261;28;20023;-75
2023/07/25 07:11:36;;;;;;;6.10;2.85;;;;;;;;;;4971058;28;20441;-76
2023/07/25 07:14:02;;;;;;;2.70;2.20;;;;;;;;;;4973082;28;20083;-76
2023/07/25 07:16:27;;;;;;;3.13;2.63;;;;;;;;;;4975139;28;20036;-75
2023/07/25 07:18:52;;;;;;;4.93;2.30;;;;;;;;;;4971883;28;20767;-76
2023/07/25 07:21:18;;;;;;;3.10;2.40;;;;;;;;;;4969930;28;20058;-76
2023/07/25 07:23:43;;;;;;;2.90;2.30;;;;;;;;;;4988113;28;20034;-76
2023/07/25 07:26:08;;;;;;;3.28;2.38;;;;;;;;;;4971490;28;20074;-76
2023/07/25 07:28:34;;;;;;;5.35;2.45;;;;;;;;;;4973534;28;20558;-74
2023/07/25 07:30:59;;;;;;;3.30;2.20;;;;;;;;;;4977627;28;20034;-74
2023/07/25 07:33:25;;;;;;;6.05;2.38;;;;;;;;;;4973631;28;20046;-76
2023/07/25 07:35:50;;;;;;;2.28;2.08;;;;;;;;;;4974762;28;20031;-75
2023/07/25 07:38:15;;;;;;;2.20;2.00;;;;;;;;;;4975136;28;20419;-75
2023/07/25 07:40:41;;;;;;;3.67;2.53;;;;;;;;;;4976835;28;20044;-75
2023/07/25 07:43:06;;;;;;;2.78;2.50;;;;;;;;;;4993111;28;20058;-76
2023/07/25 07:45:31;;;;;;;3.20;2.40;;;;;;;;;;4976567;28;20030;-75
2023/07/25 07:47:56;;;;;;;4.38;2.63;;;;;;;;;;4976893;28;20510;-74
2023/07/25 07:50:22;;;;;;;2.63;2.42;;;;;;;;;;4973831;28;21036;-75
2023/07/25 07:52:48;;;;;;;3.47;2.35;;;;;;;;;;4971515;28;20917;-76
2023/07/25 07:55:15;;;;;;;2.78;2.55;;;;;;;;;;4973826;28;20063;-75
2023/07/25 07:57:42;;;;;;;4.35;3.03;;;;;;;;;;4971917;28;20077;-76
2023/07/25 08:00:09;;;;;;;6.45;2.63;;;;;;;;;;4971123;28;20031;-75
2023/07/25 08:02:34;;;;;;;4.38;2.50;;;;;;;;;;4978014;28;20041;-75
2023/07/25 08:04:59;;;;;;;3.42;2.45;;;;;;;;;;4985055;28;20034;-78
2023/07/25 08:07:25;;;;;;;3.15;2.15;;;;;;;;;;4976344;28;20546;-76
2023/07/25 08:09:54;;;;;;;2.30;2.10;;;;;;;;;;4986188;28;20085;-75
2023/07/25 08:12:20;;;;;;;3.10;2.30;;;;;;;;;;4976748;28;20058;-75
2023/07/25 08:14:45;;;;;;;5.00;3.05;;;;;;;;;;4988656;28;20038;-76
2023/07/25 08:17:10;;;;;;;4.60;3.22;;;;;;;;;;4977397;28;20034;-76
2023/07/25 08:19:35;;;;;;;3.40;2.35;;;;;;;;;;4972437;28;20130;-75
2023/07/25 08:22:01;;;;;;;2.45;2.25;;;;;;;;;;4970998;28;20043;-76
2023/07/25 08:24:26;;;;;;;2.33;1.98;;;;;;;;;;4976661;28;20050;-76
2023/07/25 08:26:51;;;;;;;2.45;2.22;;;;;;;;;;4976962;28;20034;-76
2023/07/25 08:29:17;;;;;;;2.50;2.00;;;;;;;;;;4976915;28;20057;-76
2023/07/25 08:31:42;;;;;;;2.30;2.10;;;;;;;;;;4969571;28;20041;-76
2023/07/25 08:34:07;;;;;;;3.15;2.60;;;;;;;;;;4974106;28;20046;-76
2023/07/25 08:36:32;;;;;;;3.20;2.42;;;;;;;;;;4973464;28;20041;-76
2023/07/25 08:38:58;;;;;;;3.30;2.33;;;;;;;;;;4973502;28;20362;-76
2023/07/25 08:41:30;;;;;;;2.38;2.17;;;;;;;;;;4975510;28;20039;-77
2023/07/25 08:44:00;;;;;;;2.50;2.20;;;;;;;;;;4972889;28;20034;-77
2023/07/25 08:46:27;;;;;;;2.40;2.20;;;;;;;;;;4993426;28;20332;-77
2023/07/25 08:48:57;;;;;;;3.67;2.10;;;;;;;;;;4977670;28;20041;-76
2023/07/25 08:51:23;;;;;;;1.92;1.80;;;;;;;;;;4975238;28;20493;-76
2023/07/25 08:54:05;;;;;;;2.25;2.08;;;;;;;;;;4978466;28;20052;-77
2023/07/25 08:56:31;;;;;;;2.97;2.05;;;;;;;;;;4974390;28;20204;-76
2023/07/25 08:58:57;;;;;;;2.22;1.75;;;;;;;;;;4981608;28;20502;-77
2023/07/25 09:01:23;;;;;;;2.20;1.98;;;;;;;;;;4980467;28;20593;-76
2023/07/25 09:03:48;;;;;;;2.50;2.17;;;;;;;;;;4982517;28;20129;-77
2023/07/25 09:06:15;;;;;;;5.00;2.17;;;;;;;;;;4996105;28;20368;-77
2023/07/25 09:08:40;;;;;;;3.05;2.45;;;;;;;;;;4980974;28;20056;-76
2023/07/25 09:11:09;;;;;;;3.45;2.10;;;;;;;;;;4978121;28;20510;-76
2023/07/25 09:13:34;;;;;;;2.00;1.77;;;;;;;;;;4997732;28;20040;-77
2023/07/25 09:16:00;;;;;;;2.13;1.92;;;;;;;;;;4976220;28;20042;-76
2023/07/25 09:18:25;;;;;;;3.67;2.15;;;;;;;;;;4982025;28;20513;-76
2023/07/25 09:20:51;;;;;;;5.30;1.60;;;;;;;;;;4980777;28;20050;-76
2023/07/25 09:23:21;;;;;;;1.98;1.77;;;;;;;;;;4975924;28;20058;-77
2023/07/25 09:25:47;;;;;;;1.80;1.70;;;;;;;;;;4976921;28;20066;-77
2023/07/25 09:28:12;;;;;;;4.95;1.77;;;;;;;;;;4979124;28;20042;-76
2023/07/25 09:30:45;;;;;;;1.48;1.38;;;;;;;;;;4982613;28;20528;-76
2023/07/25 09:33:23;;;;;;;1.40;1.30;;;;;;;;;;4975605;28;20038;-76
2023/07/25 09:35:48;;;;;;;1.40;1.30;;;;;;;;;;4983937;28;20034;-77
2023/07/25 09:38:14;;;;;;;2.13;1.48;;;;;;;;;;4978459;28;20105;-77
2023/07/25 09:40:39;;;;;;;1.42;1.38;;;;;;;;;;4990816;28;20062;-77
2023/07/25 09:43:04;;;;;;;1.35;1.25;;;;;;;;;;4980480;28;20252;-77
2023/07/25 09:45:36;;;;;;;1.33;1.23;;;;;;;;;;4978614;28;20406;-77
2023/07/25 09:48:02;;;;;;;1.30;1.20;;;;;;;;;;4980021;28;20026;-76
2023/07/25 09:50:33;;;;;;;1.33;1.23;;;;;;;;;;4973555;28;20359;-76
2023/07/25 09:53:01;;;;;;;1.30;1.20;;;;;;;;;;4993366;28;20051;-77
2023/07/25 09:55:27;;;;;;;1.10;1.10;;;;;;;;;;4979325;28;20130;-77
2023/07/25 09:57:52;;;;;;;2.63;1.40;;;;;;;;;;4974605;28;20376;-77
2023/07/25 10:00:18;;;;;;;1.27;1.20;;;;;;;;;;4976140;28;20049;-77
2023/07/25 10:02:43;;;;;;;1.70;1.25;;;;;;;;;;4977411;28;20074;-77
2023/07/25 10:05:09;;;;;;;1.33;1.20;;;;;;;;;;4974350;28;20458;-77
2023/07/25 10:07:36;;;;;;;1.33;1.23;;;;;;;;;;4989375;28;20507;-77
2023/07/25 10:10:03;;;;;;;2.50;1.33;;;;;;;;;;4974818;28;20065;-77
2023/07/25 10:12:29;;;;;;;1.52;1.40;;;;;;;;;;4984480;28;20031;-77
2023/07/25 10:14:55;;;;;;;1.60;1.48;;;;;;;;;;4983809;28;20045;-77
2023/07/25 10:17:22;;;;;;;1.70;1.48;;;;;;;;;;4995835;28;20407;-77
2023/07/25 10:19:52;;;;;;;1.70;1.45;;;;;;;;;;4976679;28;20073;-78
2023/07/25 10:22:32;;;;;;;1.75;1.65;;;;;;;;;;4975918;28;20035;-77
2023/07/25 10:24:57;;;;;;;1.50;1.40;;;;;;;;;;4971962;28;20096;-77
2023/07/25 10:27:23;;;;;;;1.30;1.20;;;;;;;;;;4982245;28;20058;-76
2023/07/25 10:29:49;;;;;;;4.10;1.30;;;;;;;;;;4994794;28;20026;-77
2023/07/25 10:32:16;;;;;;;1.30;1.20;;;;;;;;;;4979013;28;20030;-77
2023/07/25 10:35:03;;;;;;;1.35;1.25;;;;;;;;;;4976674;28;20057;-77
2023/07/25 10:37:30;;;;;;;1.67;1.40;;;;;;;;;;4980731;28;20069;-76
2023/07/25 10:40:15;;;;;;;2.90;1.50;;;;;;;;;;4979847;28;20034;-77
2023/07/25 10:42:44;;;;;;;;;;;;;;;;;;4979246;28;20125;-77
2023/07/25 10:45:27;;;;;;;1.63;1.23;;;;;;;;;;4982316;28;19945;-77
2023/07/25 10:47:54;;;;;;;1.53;1.43;;;;;;;;;;4977816;28;20058;-77
2023/07/25 10:50:25;;;;;;;1.30;1.20;;;;;;;;;;4972385;28;20478;-77
2023/07/25 10:52:51;;;;;;;1.73;1.30;;;;;;;;;;4978400;28;20030;-77
2023/07/25 10:55:16;;;;;;;1.80;1.00;;;;;;;;;;4976903;28;20108;-77
2023/07/25 10:58:08;;;;;;;1.10;1.10;;;;;;;;;;4972537;28;20042;-77
2023/07/25 11:00:38;;;;;;;1.50;1.40;;;;;;;;;;4977623;28;20137;-77
2023/07/25 11:03:29;;;;;;;1.52;1.40;;;;;;;;;;4975295;28;20018;-76
2023/07/25 11:06:15;;;;;;;1.83;1.30;;;;;;;;;;4977058;28;20057;-76
2023/07/25 11:08:41;;;;;;;2.80;1.27;;;;;;;;;;4963081;28;20042;-76
2023/07/25 11:11:12;;;;;;;2.30;1.38;;;;;;;;;;4972922;28;20046;-76
2023/07/25 11:13:40;;;;;;;1.25;1.20;;;;;;;;;;4971226;28;20042;-76
2023/07/25 11:16:07;;;;;;;1.85;1.00;;;;;;;;;;4975652;28;20077;-76
2023/07/25 11:18:36;;;;;;;1.10;1.10;;;;;;;;;;4979226;28;20110;-77
2023/07/25 11:21:03;;;;;;;1.23;1.20;;;;;;;;;;4976190;28;20028;-77
2023/07/25 11:23:28;;;;;;;2.65;1.33;;;;;;;;;;4911101;28;20076;-77
2023/07/25 11:25:55;;;;;;;1.20;1.10;;;;;;;;;;4971648;28;20080;-78
2023/07/25 11:28:24;;;;;;;2.05;1.30;;;;;;;;;;4972951;28;20070;-78
2023/07/25 11:30:51;;;;;;;1.60;1.15;;;;;;;;;;4975306;28;20034;-78
2023/07/25 11:33:17;;;;;;;1.75;1.30;;;;;;;;;;4994423;28;20113;-77
2023/07/25 11:35:42;;;;;;;1.27;1.20;;;;;;;;;;4979067;28;20133;-77
2023/07/25 11:38:09;;;;;;;1.27;1.15;;;;;;;;;;4973327;28;20573;-77
2023/07/25 11:40:35;;;;;;;1.50;1.30;;;;;;;;;;4975259;28;20110;-78
2023/07/25 11:43:00;;;;;;;1.30;1.20;;;;;;;;;;4971760;28;20068;-78
2023/07/25 11:45:26;;;;;;;3.72;1.30;;;;;;;;;;4990290;28;20048;-77
2023/07/25 11:47:53;;;;;;;1.80;1.20;;;;;;;;;;4978691;28;20019;-77
2023/07/25 11:50:20;;;;;;;4.25;1.73;;;;;;;;;;4973441;28;20051;-76
2023/07/25 11:52:46;;;;;;;2.75;1.17;;;;;;;;;;4975941;28;20089;-78
2023/07/25 11:55:13;;;;;;;1.83;1.45;;;;;;;;;;4941893;28;20049;-78
2023/07/25 11:57:42;;;;;;;1.52;1.40;;;;;;;;;;4909342;28;20049;-79
2023/07/25 12:00:11;;;;;;;5.65;1.40;;;;;;;;;;4976488;28;20058;-79
2023/07/25 12:02:40;;;;;;;2.90;1.40;;;;;;;;;;4973521;28;20625;-78
2023/07/25 12:05:07;;;;;;;1.80;1.20;;;;;;;;;;4977146;28;20138;-79
2023/07/25 12:07:53;;;;;;;1.45;1.33;;;;;;;;;;4982417;28;20085;-79
2023/07/25 12:10:29;;;;;;;1.73;1.25;;;;;;;;;;4976889;28;20069;-79
2023/07/25 12:12:55;;;;;;;1.50;1.20;;;;;;;;;;4980180;28;20081;-78
2023/07/25 12:15:42;;;;;;;1.33;1.23;;;;;;;;;;4973650;28;20031;-80
2023/07/25 12:18:30;;;;;;;1.50;1.40;;;;;;;;;;4976393;28;20018;-79
2023/07/25 12:20:57;;;;;;;6.28;1.63;;;;;;;;;;4976335;28;20359;-76
2023/07/25 12:23:33;;;;;;;1.23;1.10;;;;;;;;;;4975042;28;20042;-79
2023/07/25 12:26:00;;;;;;;6.93;1.70;;;;;;;;;;4995158;28;20835;-79
2023/07/25 12:28:38;;;;;;;1.77;1.45;;;;;;;;;;4977971;28;20062;-79
2023/07/25 12:31:03;;;;;;;1.25;1.15;;;;;;;;;;4976024;28;20109;-78
2023/07/25 12:33:28;;;;;;;3.95;1.38;;;;;;;;;;4972110;28;20038;-79
2023/07/25 12:35:55;;;;;;;1.40;1.30;;;;;;;;;;4992501;28;20062;-79
2023/07/25 12:38:20;;;;;;;1.88;1.40;;;;;;;;;;4993002;28;20502;-78
2023/07/25 12:40:45;;;;;;;6.75;1.52;;;;;;;;;;4976661;28;20080;-78
2023/07/25 12:43:11;;;;;;;2.47;1.77;;;;;;;;;;4977099;28;20054;-78
2023/07/25 12:45:36;;;;;;;2.90;1.25;;;;;;;;;;4979552;28;20716;-79
2023/07/25 12:48:02;;;;;;;2.03;1.83;;;;;;;;;;4981786;28;20038;-79
2023/07/25 12:50:29;;;;;;;2.17;1.50;;;;;;;;;;4995933;28;20038;-79
2023/07/25 12:52:54;;;;;;;3.05;1.20;;;;;;;;;;4972911;28;20351;-79
2023/07/25 12:55:19;;;;;;;2.00;1.52;;;;;;;;;;4983411;28;20034;-78
2023/07/25 12:57:45;;;;;;;2.42;1.30;;;;;;;;;;4981588;28;20041;-79
2023/07/25 13:00:11;;;;;;;1.85;1.45;;;;;;;;;;4976280;28;20517;-78
2023/07/25 13:02:36;;;;;;;1.50;1.40;;;;;;;;;;4970527;28;20109;-79
2023/07/25 13:05:01;;;;;;;2.65;1.50;;;;;;;;;;4970248;28;20045;-78
2023/07/25 13:07:27;;;;;;;2.85;1.40;;;;;;;;;;4973105;28;20038;-79
2023/07/25 13:09:56;;;;;;;1.80;1.40;;;;;;;;;;4979510;28;20066;-78
2023/07/25 13:12:21;;;;;;;4.88;1.30;;;;;;;;;;4975718;28;20026;-78
2023/07/25 13:14:47;;;;;;;8.85;1.35;;;;;;;;;;4972815;28;20033;-78
2023/07/25 13:17:12;;;;;;;2.17;1.27;;;;;;;;;;4978581;28;20039;-79
2023/07/25 13:19:37;;;;;;;3.45;1.55;;;;;;;;;;4978709;28;20039;-78
2023/07/25 13:22:02;;;;;;;1.30;1.20;;;;;;;;;;4973290;28;20035;-79
2023/07/25 13:24:28;;;;;;;3.08;1.75;;;;;;;;;;4975447;28;20067;-78
2023/07/25 13:26:53;;;;;;;4.90;1.60;;;;;;;;;;4980203;28;20109;-78
2023/07/25 13:29:18;;;;;;;2.03;1.42;;;;;;;;;;4980058;28;20038;-78
2023/07/25 13:31:44;;;;;;;6.07;1.90;;;;;;;;;;4979549;28;20096;-78
2023/07/25 13:34:09;;;;;;;5.13;1.60;;;;;;;;;;4996369;28;20034;-78
2023/07/25 13:36:34;;;;;;;3.50;1.75;;;;;;;;;;4993078;28;20069;-79
2023/07/25 13:39:00;;;;;;;6.13;1.55;;;;;;;;;;4978530;28;20483;-78
2023/07/25 13:41:25;;;;;;;4.00;1.98;;;;;;;;;;4982922;28;20304;-79
2023/07/25 13:43:50;;;;;;;2.72;2.05;;;;;;;;;;4978593;28;20176;-78
2023/07/25 13:46:15;;;;;;;3.80;1.52;;;;;;;;;;4976766;28;20050;-78
2023/07/25 13:48:41;;;;;;;1.60;1.50;;;;;;;;;;4980888;28;20034;-78
2023/07/25 13:51:07;;;;;;;1.60;1.50;;;;;;;;;;4978474;28;20049;-79
2023/07/25 13:53:32;;;;;;;3.10;1.40;;;;;;;;;;4979136;28;20098;-78
2023/07/25 13:55:57;;;;;;;3.13;1.60;;;;;;;;;;4974263;28;20031;-78
2023/07/25 13:58:23;;;;;;;1.77;1.40;;;;;;;;;;4995590;28;20117;-78
2023/07/25 14:00:48;;;;;;;2.92;1.55;;;;;;;;;;4989530;28;20542;-78
2023/07/25 14:03:13;;;;;;;2.80;1.50;;;;;;;;;;4978909;28;20117;-78
2023/07/25 14:05:38;;;;;;;1.75;1.50;;;;;;;;;;4975226;28;20074;-78
2023/07/25 14:08:07;;;;;;;1.50;1.40;;;;;;;;;;4981769;28;20035;-78
2023/07/25 14:10:32;;;;;;;1.88;1.40;;;;;;;;;;4981815;28;20038;-78
2023/07/25 14:12:58;;;;;;;3.03;1.50;;;;;;;;;;4987182;28;20592;-78
2023/07/25 14:15:23;;;;;;;1.65;1.55;;;;;;;;;;4981722;28;20038;-78
2023/07/25 14:17:49;;;;;;;1.60;1.50;;;;;;;;;;4979494;28;20026;-78
2023/07/25 14:20:14;;;;;;;2.25;1.50;;;;;;;;;;4975609;28;20039;-78
2023/07/25 14:22:40;;;;;;;3.78;1.50;;;;;;;;;;4970405;28;20041;-78
2023/07/25 14:25:06;;;;;;;1.83;1.50;;;;;;;;;;4977471;28;20367;-78
2023/07/25 14:27:31;;;;;;;2.45;1.38;;;;;;;;;;4984379;28;20122;-78
2023/07/25 14:29:56;;;;;;;2.75;1.40;;;;;;;;;;4983087;28;20113;-78
2023/07/25 14:32:22;;;;;;;1.30;1.20;;;;;;;;;;4953982;28;20172;-78
2023/07/25 14:34:49;;;;;;;1.40;1.30;;;;;;;;;;4957025;28;20740;-78
2023/07/25 14:37:15;;;;;;;6.60;1.52;;;;;;;;;;4979532;28;20134;-78